Time;durP1;ratioP1;P1;durP2;ratioP2;P2;SDS_P1;SDS_P2;PMS_P1;PMS_P2;Temp;Humidity;BMP_temperature;BMP_pressure;BME280_temperature;BME280_humidity;BME280_pressure;Samples;Min_cycle;Max_cycle;Signal;HPM_P1;HPM_P2
2023/06/20 00:02:15;;;;;;;1999.90;999.90;;;24.90;38.80;;;;;;5094391;28;20223;-69
2023/06/20 00:04:40;;;;;;;1999.90;999.90;;;24.80;35.30;;;;;;5094401;28;20226;-69
2023/06/20 00:07:06;;;;;;;1999.90;999.90;;;24.80;34.20;;;;;;5094511;28;20521;-69
2023/06/20 00:09:32;;;;;;;1999.90;999.90;;;24.70;34.10;;;;;;5094554;28;20166;-69
2023/06/20 00:11:57;;;;;;;1999.90;999.90;;;24.70;35.60;;;;;;5094193;28;20623;-69
2023/06/20 00:14:24;;;;;;;1999.90;999.90;;;24.70;34.70;;;;;;5094317;28;20190;-69
2023/06/20 00:16:49;;;;;;;1999.90;999.90;;;24.80;33.40;;;;;;5094219;28;20557;-69
2023/06/20 00:19:15;;;;;;;1999.90;999.90;;;24.90;32.30;;;;;;5094274;28;20405;-69
2023/06/20 00:21:41;;;;;;;1999.90;999.90;;;24.90;32.20;;;;;;5093894;28;20170;-69
2023/06/20 00:24:09;;;;;;;1999.90;999.90;;;24.90;32.30;;;;;;5094085;28;20215;-69
2023/06/20 00:26:37;;;;;;;1999.90;999.90;;;24.90;33.10;;;;;;5094357;28;20643;-69
2023/06/20 00:29:02;;;;;;;1999.90;999.90;;;24.80;34.10;;;;;;5094168;28;20465;-69
2023/06/20 00:31:28;;;;;;;1999.90;999.90;;;24.80;34.20;;;;;;5093762;28;20383;-69
2023/06/20 00:33:54;;;;;;;1999.90;999.90;;;24.70;37.10;;;;;;5093906;28;20650;-69
2023/06/20 00:36:25;;;;;;;1999.90;999.90;;;24.60;36.70;;;;;;5094179;28;20180;-69
2023/06/20 00:38:55;;;;;;;1999.90;999.90;;;24.50;39.70;;;;;;5094159;28;20658;-69
2023/06/20 00:41:21;;;;;;;1999.90;999.90;;;24.40;41.30;;;;;;5093583;28;20408;-69
2023/06/20 00:43:48;;;;;;;1999.90;999.90;;;24.30;42.60;;;;;;5093672;28;20483;-69
2023/06/20 00:46:19;;;;;;;1999.90;999.90;;;24.10;50.60;;;;;;5093716;28;20379;-69
2023/06/20 00:48:47;;;;;;;1999.90;999.90;;;24.10;50.60;;;;;;5093693;28;20367;-69
2023/06/20 00:51:15;;;;;;;1999.90;999.90;;;24.10;49.40;;;;;;5093524;28;20868;-69
2023/06/20 00:53:42;;;;;;;1999.90;999.90;;;24.10;51.00;;;;;;5093660;28;20419;-69
2023/06/20 00:56:10;;;;;;;1999.90;999.90;;;24.20;52.80;;;;;;5093567;28;20400;-69
2023/06/20 00:58:36;;;;;;;1999.90;999.90;;;24.20;55.00;;;;;;5093584;28;20394;-69
2023/06/20 01:01:01;;;;;;;1999.90;999.90;;;24.10;53.60;;;;;;5093153;28;20404;-69
2023/06/20 01:03:27;;;;;;;1999.90;999.90;;;24.10;54.40;;;;;;5093352;28;20537;-69
2023/06/20 01:06:24;;;;;;;1999.90;999.90;;;24.00;56.30;;;;;;5093309;28;20243;-69
2023/06/20 01:09:05;;;;;;;1999.90;999.90;;;23.90;66.80;;;;;;5084268;28;20187;-69
2023/06/20 01:11:45;;;;;;;1999.90;999.90;;;23.70;83.70;;;;;;5093005;28;20392;-69
2023/06/20 01:14:28;;;;;;;1999.90;999.90;;;23.70;93.40;;;;;;5093193;28;20453;-70
2023/06/20 01:17:05;;;;;;;1999.90;999.90;;;23.50;95.20;;;;;;5093272;28;20446;-70
2023/06/20 01:19:50;;;;;;;1999.90;999.90;;;23.50;99.90;;;;;;5093154;28;20533;-70
2023/06/20 01:22:49;;;;;;;1999.90;999.90;;;23.50;99.90;;;;;;5092892;28;20406;-69
2023/06/20 01:25:27;;;;;;;1999.90;999.90;;;23.40;99.90;;;;;;5093221;28;20436;-69
2023/06/20 01:28:06;;;;;;;1999.90;999.90;;;23.30;99.90;;;;;;5092357;28;20393;-69
2023/06/20 01:31:01;;;;;;;1999.90;999.90;;;23.30;99.90;;;;;;5093181;28;20523;-69
2023/06/20 01:33:32;;;;;;;1999.90;999.90;;;23.40;99.90;;;;;;5090363;28;20383;-69
2023/06/20 01:36:00;;;;;;;1999.90;999.90;;;23.40;99.90;;;;;;5093114;28;21080;-69
2023/06/20 01:38:29;;;;;;;1999.90;999.90;;;23.30;99.90;;;;;;5092775;28;20822;-69
2023/06/20 01:40:56;;;;;;;1999.90;999.90;;;23.30;99.90;;;;;;5092535;28;20794;-69
2023/06/20 01:43:22;;;;;;;1999.90;999.90;;;23.20;99.90;;;;;;5092658;28;20788;-69
2023/06/20 01:45:50;;;;;;;1999.90;999.90;;;23.20;99.90;;;;;;5092623;28;20515;-69
2023/06/20 01:48:18;;;;;;;1999.90;999.90;;;23.00;99.90;;;;;;5092547;28;20371;-69
2023/06/20 01:50:46;;;;;;;1999.90;999.90;;;23.00;99.90;;;;;;5092531;28;20402;-69
2023/06/20 01:53:13;;;;;;;1999.90;999.90;;;22.90;99.90;;;;;;5092263;28;20409;-69
2023/06/20 01:55:41;;;;;;;1999.90;999.90;;;22.90;99.90;;;;;;5092403;28;20431;-70
2023/06/20 01:58:09;;;;;;;1999.90;999.90;;;23.00;99.90;;;;;;5092658;28;20394;-68
2023/06/20 02:00:36;;;;;;;1999.90;999.90;;;23.00;99.90;;;;;;5092635;28;20768;-69
2023/06/20 02:03:03;;;;;;;1999.90;999.90;;;23.10;99.90;;;;;;5092132;28;20419;-69
2023/06/20 02:05:31;;;;;;;1999.90;999.90;;;23.10;99.90;;;;;;5092330;28;20479;-69
2023/06/20 02:07:58;;;;;;;1999.90;999.90;;;23.10;99.90;;;;;;5092279;28;20440;-69
2023/06/20 02:10:25;;;;;;;1999.90;999.90;;;23.20;99.90;;;;;;5092353;28;20411;-69
2023/06/20 02:12:53;;;;;;;1999.90;999.90;;;23.20;99.90;;;;;;5091981;28;20887;-69
2023/06/20 02:15:20;;;;;;;1999.90;999.90;;;23.20;99.90;;;;;;5092280;28;20466;-69
2023/06/20 02:17:46;;;;;;;1999.90;999.90;;;23.20;99.90;;;;;;5092142;28;20417;-69
2023/06/20 02:20:13;;;;;;;1999.90;999.90;;;23.20;99.90;;;;;;5092144;28;20407;-69
2023/06/20 02:22:43;;;;;;;1999.90;999.90;;;23.20;99.90;;;;;;5091621;28;20401;-69
2023/06/20 02:25:12;;;;;;;1999.90;999.90;;;23.20;99.90;;;;;;5092067;28;20395;-69
2023/06/20 02:27:40;;;;;;;1999.90;999.90;;;23.20;99.90;;;;;;5092141;28;20418;-69
2023/06/20 02:30:09;;;;;;;1999.90;999.90;;;23.20;99.90;;;;;;5092160;28;20511;-68
2023/06/20 02:32:37;;;;;;;1999.90;999.90;;;23.30;99.90;;;;;;5091691;28;20396;-69
2023/06/20 02:35:05;;;;;;;1999.90;999.90;;;23.20;99.90;;;;;;5091931;28;20511;-69
2023/06/20 02:37:33;;;;;;;1999.90;999.90;;;23.20;99.90;;;;;;5092032;28;20508;-69
2023/06/20 02:39:59;;;;;;;1999.90;999.90;;;23.10;99.90;;;;;;5094521;28;20416;-69
2023/06/20 02:42:24;;;;;;;1999.90;999.90;;;23.00;99.90;;;;;;5095956;28;20370;-69
2023/06/20 02:44:50;;;;;;;1999.90;999.90;;;22.90;99.90;;;;;;5096056;28;20496;-69
2023/06/20 02:47:26;;;;;;;1999.90;999.90;;;22.80;99.90;;;;;;5096018;28;20535;-69
2023/06/20 02:50:09;;;;;;;1999.90;999.90;;;22.80;99.90;;;;;;5096093;28;20845;-69
2023/06/20 02:53:13;;;;;;;1999.90;999.90;;;22.80;99.90;;;;;;5095756;28;20407;-69
2023/06/20 02:55:45;;;;;;;1999.90;999.90;;;22.60;99.90;;;;;;5095898;28;20430;-69
2023/06/20 02:58:13;;;;;;;1999.90;999.90;;;22.50;99.90;;;;;;5096075;28;20404;-69
2023/06/20 03:00:44;;;;;;;1999.90;999.90;;;22.40;99.90;;;;;;5095917;28;20423;-69
2023/06/20 03:03:14;;;;;;;1999.90;999.90;;;22.40;99.90;;;;;;5095542;28;20490;-69
2023/06/20 03:05:44;;;;;;;1999.90;999.90;;;22.30;99.90;;;;;;5095711;28;20574;-69
2023/06/20 03:08:17;;;;;;;1999.90;999.90;;;22.10;99.90;;;;;;5095694;28;20371;-69
2023/06/20 03:10:43;;;;;;;1999.90;999.90;;;21.90;99.90;;;;;;5095667;28;20387;-69
2023/06/20 03:13:14;;;;;;;1999.90;999.90;;;21.80;99.90;;;;;;5095251;28;20445;-69
2023/06/20 03:15:40;;;;;;;1999.90;999.90;;;21.60;99.90;;;;;;5095647;28;20453;-69
2023/06/20 03:18:07;;;;;;;1999.90;999.90;;;21.50;99.90;;;;;;5095486;28;20396;-68
2023/06/20 03:20:33;;;;;;;1999.90;999.90;;;21.40;99.90;;;;;;5095410;28;20402;-68
2023/06/20 03:22:58;;;;;;;1999.90;999.90;;;21.30;99.90;;;;;;5095357;28;20481;-68
2023/06/20 03:25:24;;;;;;;1999.90;999.90;;;21.20;99.90;;;;;;5095607;28;20192;-69
2023/06/20 03:27:49;;;;;;;1999.90;999.90;;;21.20;99.90;;;;;;5095291;28;20645;-69
2023/06/20 03:30:15;;;;;;;1999.90;999.90;;;21.20;99.90;;;;;;5095331;28;20240;-69
2023/06/20 03:32:41;;;;;;;1999.90;999.90;;;21.10;99.90;;;;;;5094914;28;20557;-69
2023/06/20 03:35:07;;;;;;;1999.90;999.90;;;21.10;99.90;;;;;;5095032;28;20215;-68
2023/06/20 03:37:33;;;;;;;1999.90;999.90;;;21.10;99.90;;;;;;5095289;28;20166;-68
2023/06/20 03:39:59;;;;;;;1999.90;999.90;;;21.10;99.90;;;;;;5095283;28;20770;-70
2023/06/20 03:42:24;;;;;;;1999.90;999.90;;;21.10;99.90;;;;;;5095107;28;20166;-68
2023/06/20 03:44:50;;;;;;;1999.90;999.90;;;21.20;99.90;;;;;;5095110;28;20204;-69
2023/06/20 03:47:15;;;;;;;1999.90;999.90;;;21.20;99.90;;;;;;5095185;28;20204;-69
2023/06/20 03:49:41;;;;;;;1999.90;999.90;;;21.20;99.90;;;;;;5095086;28;20533;-68
2023/06/20 03:52:07;;;;;;;1999.90;999.90;;;21.20;99.90;;;;;;5093895;28;20641;-69
2023/06/20 03:54:34;;;;;;;1999.90;999.90;;;21.30;99.90;;;;;;5095093;28;20416;-68
2023/06/20 03:57:00;;;;;;;1999.90;999.90;;;21.30;99.90;;;;;;5094999;28;20205;-68
2023/06/20 03:59:26;;;;;;;1999.90;999.90;;;21.40;99.90;;;;;;5094891;28;20387;-68
2023/06/20 04:01:52;;;;;;;1999.90;999.90;;;21.30;99.90;;;;;;5094501;28;20440;-68
2023/06/20 04:04:18;;;;;;;1999.90;999.90;;;21.30;99.90;;;;;;5094458;28;20209;-68
2023/06/20 04:06:49;;;;;;;1999.90;999.90;;;21.30;99.90;;;;;;5094679;28;20407;-69
2023/06/20 04:09:16;;;;;;;1999.90;999.90;;;21.20;99.90;;;;;;5094904;28;20400;-68
2023/06/20 04:11:42;;;;;;;1999.90;999.90;;;21.20;99.90;;;;;;5094256;28;20475;-68
2023/06/20 04:14:07;;;;;;;1999.90;999.90;;;21.30;99.90;;;;;;5094400;28;20513;-69
2023/06/20 04:16:33;;;;;;;1999.90;999.90;;;21.20;99.90;;;;;;5093139;28;20174;-69
2023/06/20 04:18:58;;;;;;;1999.90;999.90;;;21.20;99.90;;;;;;5094300;28;20220;-69
2023/06/20 04:21:24;;;;;;;1999.90;999.90;;;21.30;99.90;;;;;;5093993;28;20169;-70
2023/06/20 04:23:50;;;;;;;1999.90;999.90;;;21.30;99.90;;;;;;5093953;28;20274;-69
2023/06/20 04:26:15;;;;;;;1999.90;999.90;;;21.30;99.90;;;;;;5094329;28;20197;-69
2023/06/20 04:28:41;;;;;;;1999.90;999.90;;;21.40;99.90;;;;;;5094208;28;20162;-70
2023/06/20 04:31:06;;;;;;;1999.90;999.90;;;21.50;99.90;;;;;;5093952;28;20652;-69
2023/06/20 04:33:32;;;;;;;1999.90;999.90;;;21.50;99.90;;;;;;5094046;28;20166;-68
2023/06/20 04:35:57;;;;;;;1999.90;999.90;;;21.60;99.90;;;;;;5094219;28;20266;-70
2023/06/20 04:38:23;;;;;;;1999.90;999.90;;;21.60;99.90;;;;;;5094037;28;20199;-69
2023/06/20 04:40:49;;;;;;;1999.90;999.90;;;21.60;99.90;;;;;;5093859;28;20181;-69
2023/06/20 04:43:14;;;;;;;1999.90;999.90;;;21.70;99.90;;;;;;5093579;28;20289;-69
2023/06/20 04:45:40;;;;;;;1999.90;999.90;;;21.80;99.90;;;;;;5093713;28;20190;-70
2023/06/20 04:48:05;;;;;;;1999.90;999.90;;;21.80;99.90;;;;;;5093860;28;20174;-69
2023/06/20 04:50:31;;;;;;;1999.90;999.90;;;21.90;99.90;;;;;;5093779;28;20189;-69
2023/06/20 04:52:57;;;;;;;1999.90;999.90;;;22.00;99.90;;;;;;5093461;28;20170;-69
2023/06/20 04:55:23;;;;;;;1999.90;999.90;;;22.10;99.90;;;;;;5093605;28;20460;-69
2023/06/20 04:57:48;;;;;;;1999.90;999.90;;;22.10;99.90;;;;;;5093750;28;20178;-69
2023/06/20 05:00:15;;;;;;;1999.90;999.90;;;22.20;99.90;;;;;;5093527;28;20169;-69
2023/06/20 05:02:44;;;;;;;1999.90;999.90;;;22.20;99.90;;;;;;5092002;28;20262;-69
2023/06/20 05:05:10;;;;;;;1999.90;999.90;;;22.20;99.90;;;;;;5093570;28;20432;-69
2023/06/20 05:07:39;;;;;;;1999.90;999.90;;;22.20;99.90;;;;;;5093431;28;20434;-69
2023/06/20 05:10:05;;;;;;;1999.90;999.90;;;22.30;99.90;;;;;;5093267;28;20412;-69
2023/06/20 05:12:30;;;;;;;1999.90;999.90;;;22.40;99.90;;;;;;5093020;28;20415;-69
2023/06/20 05:14:56;;;;;;;1999.90;999.90;;;22.50;99.90;;;;;;5093217;28;20846;-69
2023/06/20 05:17:22;;;;;;;1999.90;999.90;;;22.60;99.90;;;;;;5093158;28;20224;-69
2023/06/20 05:19:47;;;;;;;1999.90;999.90;;;22.70;99.90;;;;;;5093275;28;20170;-69
2023/06/20 05:22:13;;;;;;;1999.90;999.90;;;22.70;99.90;;;;;;5092864;28;20760;-69
2023/06/20 05:24:38;;;;;;;1999.90;999.90;;;22.60;99.90;;;;;;5093027;28;20198;-69
2023/06/20 05:27:04;;;;;;;1999.90;999.90;;;22.60;99.90;;;;;;5093048;28;20178;-69
2023/06/20 05:29:30;;;;;;;1999.90;999.90;;;22.50;99.90;;;;;;5092998;28;20201;-69
2023/06/20 05:31:55;;;;;;;1999.90;999.90;;;22.40;99.90;;;;;;5092894;28;20173;-69
2023/06/20 05:34:21;;;;;;;1999.90;999.90;;;22.40;99.90;;;;;;5093004;28;20216;-69
2023/06/20 05:36:47;;;;;;;1999.90;999.90;;;22.30;99.90;;;;;;5093233;28;20180;-68
2023/06/20 05:39:13;;;;;;;1999.90;999.90;;;22.30;99.90;;;;;;5092733;28;20530;-69
2023/06/20 05:41:39;;;;;;;1999.90;999.90;;;22.30;99.90;;;;;;5092605;28;20630;-69
2023/06/20 05:44:04;;;;;;;1999.90;999.90;;;22.40;99.90;;;;;;5092535;28;20551;-68
2023/06/20 05:46:30;;;;;;;1999.90;999.90;;;22.50;99.90;;;;;;5092968;28;20282;-69
2023/06/20 05:48:59;;;;;;;1999.90;999.90;;;22.60;99.90;;;;;;5092715;28;20177;-69
2023/06/20 05:51:29;;;;;;;1999.90;999.90;;;22.80;99.90;;;;;;5092503;28;20178;-69
2023/06/20 05:53:57;;;;;;;1999.90;999.90;;;22.80;99.90;;;;;;5092472;28;20385;-69
2023/06/20 05:56:23;;;;;;;1999.90;999.90;;;22.90;99.90;;;;;;5092767;28;20387;-69
2023/06/20 05:58:49;;;;;;;1999.90;999.90;;;23.00;99.90;;;;;;5092567;28;20394;-69
2023/06/20 06:01:14;;;;;;;1999.90;999.90;;;23.10;99.90;;;;;;5092326;28;20878;-69
2023/06/20 06:03:40;;;;;;;1999.90;999.90;;;23.10;99.90;;;;;;5092347;28;20204;-69
2023/06/20 06:06:09;;;;;;;1999.90;999.90;;;23.10;99.90;;;;;;5092449;28;20178;-69
2023/06/20 06:08:35;;;;;;;1999.90;999.90;;;23.10;99.90;;;;;;5092327;28;20174;-69
2023/06/20 06:11:01;;;;;;;1999.90;999.90;;;23.00;99.90;;;;;;5093749;28;20399;-69
2023/06/20 06:13:27;;;;;;;1999.90;999.90;;;22.90;99.90;;;;;;5092535;28;20437;-68
2023/06/20 06:15:53;;;;;;;1999.90;999.90;;;22.90;99.90;;;;;;5092325;28;20207;-69
2023/06/20 06:18:19;;;;;;;1999.90;999.90;;;22.90;99.90;;;;;;5092150;28;20500;-69
2023/06/20 06:20:45;;;;;;;1999.90;999.90;;;22.90;99.90;;;;;;5092227;28;20165;-69
2023/06/20 06:23:11;;;;;;;1999.90;999.90;;;23.00;99.90;;;;;;5091775;28;20334;-70
2023/06/20 06:25:37;;;;;;;1999.90;999.90;;;23.00;99.90;;;;;;5092143;28;20247;-69
2023/06/20 06:28:03;;;;;;;1999.90;999.90;;;23.00;99.90;;;;;;5092199;28;20400;-69
2023/06/20 06:30:32;;;;;;;1999.90;999.90;;;23.10;99.90;;;;;;5092426;28;20601;-69
2023/06/20 06:32:59;;;;;;;1999.90;999.90;;;23.10;99.90;;;;;;5092476;28;20419;-69
2023/06/20 06:35:24;;;;;;;1999.90;999.90;;;23.20;99.90;;;;;;5092296;28;20398;-69
2023/06/20 06:37:52;;;;;;;1999.90;999.90;;;23.20;99.90;;;;;;5092433;28;20408;-69
2023/06/20 06:40:20;;;;;;;1999.90;999.90;;;23.30;99.90;;;;;;5092686;28;20201;-68
2023/06/20 06:42:46;;;;;;;1999.90;999.90;;;23.40;99.90;;;;;;5092126;28;20428;-68
2023/06/20 06:45:11;;;;;;;1999.90;999.90;;;23.50;99.90;;;;;;5092144;28;20416;-69
2023/06/20 06:47:37;;;;;;;1999.90;999.90;;;23.70;99.90;;;;;;5092102;28;20412;-69
2023/06/20 06:50:03;;;;;;;1999.90;999.90;;;23.80;99.90;;;;;;5092317;28;20227;-69
2023/06/20 06:52:31;;;;;;;1999.90;999.90;;;23.80;99.90;;;;;;5091984;28;20531;-69
2023/06/20 06:54:56;;;;;;;1999.90;999.90;;;23.90;99.90;;;;;;5092391;28;20194;-69
2023/06/20 06:57:22;;;;;;;1999.90;999.90;;;23.90;99.90;;;;;;5092244;28;20761;-69
2023/06/20 06:59:47;;;;;;;1999.90;999.90;;;24.00;99.90;;;;;;5092489;28;20224;-69
2023/06/20 07:02:13;;;;;;;1999.90;999.90;;;24.10;99.90;;;;;;5092133;28;20178;-69
2023/06/20 07:04:39;;;;;;;1999.90;999.90;;;24.10;99.90;;;;;;5092480;28;20217;-69
2023/06/20 07:07:05;;;;;;;1999.90;999.90;;;24.10;99.90;;;;;;5092711;28;20404;-69
2023/06/20 07:09:31;;;;;;;1999.90;999.90;;;24.10;99.90;;;;;;5091040;28;20202;-69
2023/06/20 07:11:56;;;;;;;1999.90;999.90;;;24.10;99.90;;;;;;5092066;28;20396;-68
2023/06/20 07:14:22;;;;;;;1999.90;999.90;;;24.10;99.90;;;;;;5091968;28;20190;-69
2023/06/20 07:16:47;;;;;;;1999.90;999.90;;;24.20;99.90;;;;;;5092432;28;20175;-69
2023/06/20 07:19:13;;;;;;;1999.90;999.90;;;24.30;99.90;;;;;;5092141;28;20170;-70
2023/06/20 07:21:38;;;;;;;1999.90;999.90;;;24.30;99.90;;;;;;5091776;28;20660;-68
2023/06/20 07:24:04;;;;;;;1999.90;999.90;;;24.40;99.90;;;;;;5092055;28;20194;-69
2023/06/20 07:26:30;;;;;;;1999.90;999.90;;;24.50;99.90;;;;;;5093681;28;20199;-69
2023/06/20 07:28:55;;;;;;;1999.90;999.90;;;24.50;99.90;;;;;;5096140;28;20454;-69
2023/06/20 07:31:21;;;;;;;1999.90;999.90;;;24.60;99.90;;;;;;5095910;28;20200;-69
2023/06/20 07:33:47;;;;;;;1999.90;999.90;;;24.60;99.90;;;;;;5096847;28;20173;-70
2023/06/20 07:36:13;;;;;;;1999.90;999.90;;;24.70;99.90;;;;;;5095803;28;20227;-69
2023/06/20 07:38:39;;;;;;;1999.90;999.90;;;24.80;99.90;;;;;;5095197;28;20166;-69
2023/06/20 07:41:05;;;;;;;1999.90;999.90;;;24.90;99.90;;;;;;5094811;28;21136;-69
2023/06/20 07:43:30;;;;;;;1999.90;999.90;;;25.10;99.90;;;;;;5095215;28;20208;-69
2023/06/20 07:45:56;;;;;;;1999.90;999.90;;;25.10;99.90;;;;;;5095159;28;20668;-69
2023/06/20 07:48:27;;;;;;;1999.90;999.90;;;25.20;99.90;;;;;;5094985;28;20163;-69
2023/06/20 07:50:53;;;;;;;1999.90;999.90;;;25.30;99.90;;;;;;5094877;28;20166;-69
2023/06/20 07:53:19;;;;;;;1999.90;999.90;;;25.40;99.90;;;;;;5094856;28;20415;-69
2023/06/20 07:55:44;;;;;;;1999.90;999.90;;;25.40;99.90;;;;;;5094645;28;20391;-69
2023/06/20 07:58:10;;;;;;;1999.90;999.90;;;25.50;99.90;;;;;;5094811;28;20181;-69
2023/06/20 08:00:35;;;;;;;1999.90;999.90;;;25.40;99.90;;;;;;5094822;28;20180;-69
2023/06/20 08:03:01;;;;;;;1999.90;999.90;;;25.50;99.90;;;;;;5094377;28;20194;-69
2023/06/20 08:05:26;;;;;;;1999.90;999.90;;;25.50;99.90;;;;;;5094502;28;20538;-69
2023/06/20 08:07:52;;;;;;;1999.90;999.90;;;25.60;99.90;;;;;;5094577;28;20170;-69
2023/06/20 08:10:18;;;;;;;1999.90;999.90;;;25.60;99.90;;;;;;5090865;28;20182;-69
2023/06/20 08:12:44;;;;;;;1999.90;999.90;;;25.70;99.90;;;;;;5091205;28;20232;-70
2023/06/20 08:15:10;;;;;;;1999.90;999.90;;;25.80;99.90;;;;;;5090111;28;20198;-71
2023/06/20 08:17:36;;;;;;;1999.90;999.90;;;25.90;99.90;;;;;;5090901;28;20784;-71
2023/06/20 08:20:06;;;;;;;1999.90;999.90;;;26.00;99.90;;;;;;5090209;28;20932;-71
2023/06/20 08:22:32;;;;;;;1999.90;999.90;;;26.10;99.90;;;;;;5090499;28;20934;-71
2023/06/20 08:24:58;;;;;;;1999.90;999.90;;;26.30;99.90;;;;;;5091545;28;20465;-70
2023/06/20 08:27:24;;;;;;;1999.90;999.90;;;26.50;99.90;;;;;;5091671;28;20782;-73
2023/06/20 08:29:49;;;;;;;1999.90;999.90;;;26.50;99.90;;;;;;5090441;28;20175;-71
2023/06/20 08:32:15;;;;;;;1999.90;999.90;;;26.60;99.90;;;;;;5090695;28;20205;-70
2023/06/20 08:34:40;;;;;;;1999.90;999.90;;;26.60;99.90;;;;;;5090653;28;20259;-70
2023/06/20 08:37:08;;;;;;;1999.90;999.90;;;26.50;99.90;;;;;;5090465;28;20186;-70
2023/06/20 08:39:34;;;;;;;1999.90;999.90;;;26.50;99.90;;;;;;5094156;28;20208;-69
2023/06/20 08:42:00;;;;;;;1999.90;999.90;;;26.50;99.90;;;;;;5093718;28;20416;-69
2023/06/20 08:44:25;;;;;;;1999.90;999.90;;;26.60;99.90;;;;;;5093701;28;20464;-69
2023/06/20 08:46:57;;;;;;;1999.90;999.90;;;26.50;99.90;;;;;;5093871;28;20170;-69
2023/06/20 08:49:26;;;;;;;1999.90;999.90;;;26.50;99.90;;;;;;5093872;28;20304;-70
2023/06/20 08:51:57;;;;;;;1999.90;999.90;;;26.60;99.90;;;;;;5093346;28;20432;-70
2023/06/20 08:54:25;;;;;;;1999.90;999.90;;;26.60;99.90;;;;;;5093490;28;20428;-71
2023/06/20 08:56:50;;;;;;;1999.90;999.90;;;26.70;99.90;;;;;;5093616;28;20869;-70
2023/06/20 08:59:21;;;;;;;1999.90;999.90;;;26.80;99.90;;;;;;5093535;28;20411;-70
2023/06/20 09:01:47;;;;;;;1999.90;999.90;;;26.90;99.90;;;;;;5093251;28;20174;-70
2023/06/20 09:04:12;;;;;;;1999.90;999.90;;;27.00;99.90;;;;;;5093302;28;20442;-70
2023/06/20 09:06:38;;;;;;;1999.90;999.90;;;27.10;99.90;;;;;;5093371;28;20578;-70
2023/06/20 09:09:14;;;;;;;1999.90;999.90;;;27.30;99.90;;;;;;5093341;28;20200;-69
2023/06/20 09:11:46;;;;;;;1999.90;999.90;;;27.40;99.90;;;;;;5093144;28;20542;-69
2023/06/20 09:14:11;;;;;;;1999.90;999.90;;;27.40;99.90;;;;;;5093210;28;20434;-70
2023/06/20 09:16:37;;;;;;;1999.90;999.90;;;27.50;99.90;;;;;;5093323;28;21186;-70
2023/06/20 09:19:03;;;;;;;1999.90;999.90;;;27.50;99.90;;;;;;5093080;28;20251;-70
2023/06/20 09:21:28;;;;;;;1999.90;999.90;;;27.50;99.90;;;;;;5093119;28;20185;-70
2023/06/20 09:24:04;;;;;;;1999.90;999.90;;;27.50;99.90;;;;;;5093344;28;20291;-68
2023/06/20 09:26:31;;;;;;;1999.90;999.90;;;27.60;99.90;;;;;;5093115;28;20548;-69
2023/06/20 09:29:16;;;;;;;1999.90;999.90;;;27.70;99.90;;;;;;5093107;28;20401;-69
2023/06/20 09:31:49;;;;;;;1999.90;999.90;;;27.70;99.90;;;;;;5092826;28;20375;-69
2023/06/20 09:34:19;;;;;;;1999.90;999.90;;;27.70;99.90;;;;;;5092929;28;20420;-69
2023/06/20 09:36:46;;;;;;;1999.90;999.90;;;27.70;99.90;;;;;;5093020;28;20412;-70
2023/06/20 09:39:23;;;;;;;1999.90;999.90;;;27.90;99.90;;;;;;5092861;28;20423;-69
2023/06/20 09:41:50;;;;;;;1999.90;999.90;;;28.00;99.90;;;;;;5092548;28;20415;-69
2023/06/20 09:44:17;;;;;;;1999.90;999.90;;;28.10;99.90;;;;;;5092908;28;20459;-69
2023/06/20 09:46:43;;;;;;;1999.90;999.90;;;28.30;99.90;;;;;;5092804;28;20450;-69
2023/06/20 09:49:12;;;;;;;1999.90;999.90;;;28.50;99.90;;;;;;5092092;28;20444;-69
2023/06/20 09:51:54;;;;;;;1999.90;999.90;;;28.70;99.90;;;;;;5092500;28;20488;-69
2023/06/20 09:54:33;;;;;;;1999.90;999.90;;;28.80;99.90;;;;;;5092438;28;20439;-69
2023/06/20 09:57:08;;;;;;;1999.90;999.90;;;29.00;99.90;;;;;;5092581;28;20427;-70
2023/06/20 09:59:38;;;;;;;1999.90;999.90;;;29.30;99.90;;;;;;5092959;28;20460;-69
2023/06/20 10:02:07;;;;;;;1999.90;999.90;;;29.40;99.90;;;;;;5092107;28;20427;-69
2023/06/20 10:04:39;;;;;;;1999.90;999.90;;;29.60;99.90;;;;;;5092810;28;20480;-69
2023/06/20 10:07:05;;;;;;;1999.90;999.90;;;29.70;99.90;;;;;;5092577;28;20430;-69
2023/06/20 10:09:31;;;;;;;1999.90;999.90;;;29.60;99.90;;;;;;5092630;28;20427;-70
2023/06/20 10:11:57;;;;;;;1999.90;999.90;;;29.50;99.90;;;;;;5092124;28;20408;-69
2023/06/20 10:14:23;;;;;;;1999.90;999.90;;;29.50;99.90;;;;;;5092235;28;20873;-69
2023/06/20 10:16:52;;;;;;;1999.90;999.90;;;29.80;99.90;;;;;;5092205;28;20410;-69
2023/06/20 10:19:19;;;;;;;1999.90;999.90;;;30.00;99.90;;;;;;5092216;28;20408;-70
2023/06/20 10:21:59;;;;;;;1999.90;999.90;;;30.20;99.90;;;;;;5091868;28;20419;-69
2023/06/20 10:24:29;;;;;;;1999.90;999.90;;;30.70;98.70;;;;;;5092145;28;20834;-69
2023/06/20 10:27:01;;;;;;;1999.90;999.90;;;30.90;96.50;;;;;;5092079;28;20437;-69
2023/06/20 10:29:27;;;;;;;1999.90;999.90;;;30.70;94.60;;;;;;5092155;28;20412;-69
2023/06/20 10:32:03;;;;;;;1999.90;999.90;;;30.60;94.20;;;;;;5091902;28;20893;-69
2023/06/20 10:34:41;;;;;;;1999.90;999.90;;;30.50;93.50;;;;;;5092001;28;20510;-69
2023/06/20 10:37:24;;;;;;;1999.90;999.90;;;30.30;94.50;;;;;;5091961;28;20495;-69
2023/06/20 10:39:54;;;;;;;1999.90;999.90;;;30.50;94.10;;;;;;5092002;28;20487;-69
2023/06/20 10:42:40;;;;;;;1999.90;999.90;;;30.50;93.60;;;;;;5091620;28;20905;-69
2023/06/20 10:45:18;;;;;;;1999.90;999.90;;;30.40;94.80;;;;;;5091784;28;20456;-70
2023/06/20 10:47:45;;;;;;;1999.90;999.90;;;30.40;95.20;;;;;;5091865;28;20408;-69
2023/06/20 10:50:10;;;;;;;1999.90;999.90;;;30.80;95.10;;;;;;5091939;28;20487;-70
2023/06/20 10:52:37;;;;;;;1999.90;999.90;;;31.10;92.80;;;;;;5091498;28;20493;-69
2023/06/20 10:55:07;;;;;;;1999.90;999.90;;;30.90;86.70;;;;;;5091850;28;20428;-69
2023/06/20 10:57:35;;;;;;;1999.90;999.90;;;30.70;86.20;;;;;;5092026;28;20408;-70
2023/06/20 11:00:28;;;;;;;1999.90;999.90;;;30.80;89.90;;;;;;5092711;28;20416;-70
2023/06/20 11:02:54;;;;;;;1999.90;999.90;;;30.80;90.30;;;;;;5095225;28;20508;-70
2023/06/20 11:05:28;;;;;;;1999.90;999.90;;;30.80;90.30;;;;;;5095734;28;20864;-69
2023/06/20 11:07:55;;;;;;;1999.90;999.90;;;31.00;89.60;;;;;;5096032;28;20416;-70
2023/06/20 11:10:32;;;;;;;1999.90;999.90;;;31.00;86.90;;;;;;5095884;28;20408;-70
2023/06/20 11:13:00;;;;;;;1999.90;999.90;;;31.00;87.80;;;;;;5095521;28;20410;-69
2023/06/20 11:15:43;;;;;;;1999.90;999.90;;;31.00;81.00;;;;;;5095754;28;20424;-69
2023/06/20 11:18:09;;;;;;;1999.90;999.90;;;31.00;76.60;;;;;;5095744;28;20435;-69
2023/06/20 11:20:39;;;;;;;1999.90;999.90;;;30.80;82.90;;;;;;5095684;28;20497;-69
2023/06/20 11:23:10;;;;;;;1999.90;999.90;;;30.70;82.00;;;;;;5095155;28;20470;-70
2023/06/20 11:25:37;;;;;;;1999.90;999.90;;;30.80;82.30;;;;;;5095452;28;20773;-70
2023/06/20 11:28:04;;;;;;;1999.90;999.90;;;31.10;78.20;;;;;;5095323;28;20407;-70
2023/06/20 11:30:31;;;;;;;1999.90;999.90;;;31.20;77.60;;;;;;5095314;28;20403;-70
2023/06/20 11:33:05;;;;;;;1999.90;999.90;;;31.40;78.40;;;;;;5095180;28;20407;-70
2023/06/20 11:35:52;;;;;;;1999.90;999.90;;;31.90;73.60;;;;;;5095367;28;20446;-70
2023/06/20 11:38:30;;;;;;;1999.90;999.90;;;32.50;65.10;;;;;;5095239;28;20570;-70
2023/06/20 11:41:06;;;;;;;1999.90;999.90;;;32.80;58.10;;;;;;5096870;28;20507;-70
2023/06/20 11:43:42;;;;;;;1999.90;999.90;;;33.10;55.00;;;;;;5095290;28;20443;-71
2023/06/20 11:46:09;;;;;;;1999.90;999.90;;;33.30;49.90;;;;;;5095156;28;20400;-71
2023/06/20 11:48:35;;;;;;;1999.90;999.90;;;33.50;45.60;;;;;;5095157;28;20449;-69
2023/06/20 11:51:02;;;;;;;1999.90;999.90;;;33.70;46.00;;;;;;5094786;28;20496;-70
2023/06/20 11:53:33;;;;;;;1999.90;999.90;;;33.90;46.30;;;;;;5093634;28;20409;-72
2023/06/20 11:56:02;;;;;;;1999.90;999.90;;;34.00;40.80;;;;;;5091014;28;20472;-71
2023/06/20 11:58:35;;;;;;;1999.90;999.90;;;34.10;38.60;;;;;;5091445;28;20428;-71
2023/06/20 12:01:01;;;;;;;1999.90;999.90;;;34.10;37.90;;;;;;5091219;28;20459;-70
2023/06/20 12:03:26;;;;;;;1999.90;999.90;;;33.80;32.50;;;;;;5087142;28;20484;-70
2023/06/20 12:05:52;;;;;;;1999.90;999.90;;;33.70;36.20;;;;;;5090812;28;20622;-70